Terminal Aerodrome Forecast
Issued by NWS

Home | Current Version | Previous Version | Text Only | Print | Product List | Glossary On
Versions: 1 2 3 4 5 6 7 8 9 10 11 12 13 14 15 16 17 18
000
FTUS46 KSEW 231731
TAFOLM
TAF
KOLM 231731Z 2318/2418 22005KT P6SM SCT015 SCT100
     FM232000 26005KT P6SM SCT028 BKN100
     FM240200 VRB02KT P6SM SCT100 SCT200
     FM240900 00000KT P6SM MIFG SCT100 BKN200
     FM241100 00000KT 4SM BR BKN007 BKN100 BKN200
     FM241300 00000KT 1SM BR OVC004=

USA.gov is the U.S. government's official web portal to all federal, state and local government web resources and services.